Flight Track Log - Related Links

Times and Time Zones

All times are in EST time to prevent confusion due to time zone crossing. See the FIN666 flight status page for this flight to view local times or setup timezone preferences in your user account.

Time Position Orientation Groundspeed Altitude Reporting Facility
EST Latitude Longitude Course Direction KTS MPH feet Rate Location/Type
Sun 07:29:00 AM 55.8792 13.1969 49° Northeast  Level Estimated
Sun 07:30:00 AM 55.9442 13.3332 50° Northeast  Level Estimated
Sun 07:31:00 AM 56.0090 13.4701 50° Northeast  Level Estimated
Sun 07:32:00 AM 56.0736 13.6073 50° Northeast  Level Estimated
Sun 07:33:00 AM 56.1381 13.7451 50° Northeast  Level Estimated
Sun 07:34:00 AM 56.2025 13.8833 50° Northeast  Level Estimated
Sun 07:35:00 AM 56.2667 14.0219 50° Northeast  Level Estimated
Sun 07:36:00 AM 56.3307 14.1611 50° Northeast  Level Estimated
Sun 07:37:00 AM 56.3946 14.3007 50° Northeast  Level Estimated
Sun 07:38:00 AM 56.4583 14.4408 50° Northeast  Level Estimated
Sun 07:39:00 AM 56.5219 14.5813 51° Northeast  Level Estimated
Sun 07:40:00 AM 56.5853 14.7223 51° Northeast  Level Estimated
Sun 07:41:00 AM 56.6485 14.8638 51° Northeast  Level Estimated
Sun 07:42:00 AM 56.7167 15.0173 51° Northeast  Level Estimated
Sun 07:43:00 AM 56.7847 15.1713 51° Northeast  Level Estimated
Sun 07:44:00 AM 56.8525 15.3259 51° Northeast  Level Estimated
Sun 07:45:00 AM 56.9201 15.4811 51° Northeast  Level Estimated
Sun 07:46:00 AM 56.9875 15.6368 51° Northeast  Level Estimated
Sun 07:47:00 AM 57.0548 15.7931 52° Northeast  Level Estimated
Sun 07:48:00 AM 57.1218 15.9500 52° Northeast  Level Estimated
Sun 07:49:00 AM 57.1886 16.1074 52° Northeast  Level Estimated
Sun 07:50:00 AM 57.2553 16.2654 52° Northeast  Level Estimated
Sun 07:51:00 AM 57.3217 16.4240 52° Northeast  Level Estimated
Sun 07:52:00 AM 57.3889 16.5853 52° Northeast  Level Estimated
Sun 07:53:00 AM 57.4558 16.7472 52° Northeast  Level Estimated
Sun 07:54:00 AM 57.5225 16.9097 53° Northeast  Level Estimated
Sun 07:55:00 AM 57.5891 17.0728 53° Northeast  Level Estimated
Sun 07:56:00 AM 57.6554 17.2365 53° Northeast  Level Estimated
Sun 07:57:00 AM 57.7215 17.4008 53° Northeast  Level Estimated
Sun 07:58:00 AM 57.7874 17.5657 53° Northeast  Level Estimated
Sun 07:59:00 AM 57.8530 17.7312 53° Northeast  Level Estimated
Sun 08:00:00 AM 57.9185 17.8973 53° Northeast  Level Estimated
Sun 08:01:00 AM 57.9837 18.0640 54° Northeast  Level Estimated
Sun 08:02:00 AM 58.0488 18.2313 54° Northeast  Level Estimated
Sun 08:03:00 AM 58.1136 18.3993 54° Northeast  Level Estimated
Sun 08:04:00 AM 58.1781 18.5678 54° Northeast  Level Estimated
Sun 08:05:00 AM 58.2425 18.7369 54° Northeast  Level Estimated
Sun 08:06:00 AM 58.3066 18.9067 54° Northeast  Level Estimated
Sun 08:07:00 AM 58.3705 19.0771 54° Northeast  Level Estimated
Sun 08:08:00 AM 58.4342 19.2481 55° Northeast  Level Estimated
Sun 08:09:00 AM 58.4977 19.4197 55° Northeast  Level Estimated
Sun 08:10:00 AM 58.5609 19.5919 55° Northeast  Level Estimated
Sun 08:11:00 AM 58.6239 19.7648 55° Northeast  Level Estimated
Sun 08:12:00 AM 58.6866 19.9383 55° Northeast  Level Estimated
Sun 08:13:00 AM 58.7492 20.1124 55° Northeast  Level Estimated
Sun 08:14:00 AM 58.8115 20.2871 55° Northeast  Level Estimated
Sun 08:15:00 AM 58.8735 20.4625 56° Northeast  Level Estimated
Sun 08:16:00 AM 58.9353 20.6385 56° Northeast  Level Estimated
Sun 08:17:00 AM 58.9969 20.8151 56° Northeast  Level Estimated
Sun 08:18:00 AM 59.0582 20.9923 56° Northeast  Level Estimated
Sun 08:19:00 AM 59.1193 21.1702 56° Northeast  Level Estimated
Sun 08:20:00 AM 59.1801 21.3487 56° Northeast  Level Estimated
Sun 08:21:00 AM 59.2407 21.5279 56° Northeast  Level Estimated
Sun 08:22:00 AM 59.3003 21.7052 57° Northeast  Level Estimated
Sun 08:23:00 AM 59.3596 21.8832 57° Northeast  Level Estimated
Sun 08:24:00 AM 59.4186 22.0618 57° Northeast  Level Estimated
Sun 08:25:00 AM 59.4774 22.2410 57° Northeast  Level Estimated
Sun 08:26:00 AM 59.5360 22.4209 57° Northeast  Level Estimated
Sun 08:27:00 AM 59.5943 22.6013 57° Northeast  Level Estimated
Sun 08:28:00 AM 59.6524 22.7824 58° Northeast  Level Estimated
Sun 08:29:00 AM 59.7102 22.9641 58° Northeast  Level Estimated
Sun 08:30:00 AM 59.7678 23.1465 58° Northeast  Level Estimated
Sun 08:31:00 AM 59.8251 23.3295 58° Northeast  Level Estimated
Sun 08:32:00 AM 59.8821 23.5131 58° Northeast  Level Estimated
Sun 08:33:00 AM 59.9389 23.6973 58° Northeast  Level Estimated
Sun 08:34:00 AM 59.9955 23.8822 58° Northeast  Level Estimated
Sun 08:35:00 AM 60.0518 24.0677 59° Northeast  Level Estimated
Sun 08:36:00 AM 60.1078 24.2538 59° Northeast  Level Estimated
Sun 08:37:00 AM 60.1635 24.4406 59° Northeast  Level Estimated
Sun 08:38:00 AM 60.2190 24.6280 59° Northeast  Level Estimated
Sun 08:39:00 AM 60.2743 24.8160 59° Northeast  Level Estimated
Sun 08:40:00 AM 60.3172 24.9633 59° Northeast  Level Estimated
Sun 08:41:00 AM 60.3172 24.9633 37° Northeast  Level Estimated
Sun 08:42:00 AM 60.3172 24.9633 37° Northeast  Level Estimated
Sun 08:43:00 AM 60.3172 24.9633 37° Northeast  Level Estimated
Sun 08:44:00 AM 60.3172 24.9633 37° Northeast  Level Estimated
Sun 08:45:00 AM 60.3172 24.9633 37° Northeast  Level Estimated
Sun 08:46:00 AM 60.3172 24.9633 37° Northeast  Level Estimated
Sun 08:47:00 AM 60.3172 24.9633 37° Northeast  Level Estimated
Sun 08:48:00 AM 60.3172 24.9633 37° Northeast  Level Estimated
Sun 08:49:00 AM 60.3172 24.9633 37° Northeast  Level Estimated

Login

Don't have an account? Register now (free) for customized features, flight alerts, and more!